Ludlow, Kentucky
Current Conditions -  °F | °C
As of 9:36 PM on Wednesday 17 Dec 2014 (Local Time) from KI69 Reporting Station
Overcast Overcast  
Wind Chill: 23°   Ceiling: 1800
Heat Index: 30°   Visibility: 10mi
Dew Point: 23°   Wind: 7mph
Humidity: 75%   Direction: 330°NNW
Pressure: 30.25"   Gusts: NA
Location:  39.0873°N, 84.548°W
Report Text: KI69 180236Z AUTO 33006KT 10SM OVC018 M01/M05 A3025 RMK AO1
Loading
Personal Weather Stations






























Interactive Weather Map New forecast layout! Learn more

10-Day Weather Forecast

Advertisements
Track Severe Weather on mobile